sensor_id;sensor_type;location;lat;lon;timestamp;P1;durP1;ratioP1;P2;durP2;ratioP2
7493;SDS011;3788;49.902;8.590;2024-02-26T00:01:04;1.27;;;1.20;;
7493;SDS011;3788;49.902;8.590;2024-02-26T00:03:30;2.17;;;1.30;;
7493;SDS011;3788;49.902;8.590;2024-02-26T00:05:59;1.60;;;1.50;;
7493;SDS011;3788;49.902;8.590;2024-02-26T00:08:26;1.53;;;1.40;;
7493;SDS011;3788;49.902;8.590;2024-02-26T00:10:53;1.60;;;1.40;;
7493;SDS011;3788;49.902;8.590;2024-02-26T00:13:20;1.40;;;1.30;;
7493;SDS011;3788;49.902;8.590;2024-02-26T00:15:47;1.63;;;1.27;;
7493;SDS011;3788;49.902;8.590;2024-02-26T00:18:13;1.63;;;1.23;;
7493;SDS011;3788;49.902;8.590;2024-02-26T00:20:40;2.43;;;1.23;;
7493;SDS011;3788;49.902;8.590;2024-02-26T00:23:09;1.57;;;1.13;;
7493;SDS011;3788;49.902;8.590;2024-02-26T00:25:36;1.40;;;1.30;;
7493;SDS011;3788;49.902;8.590;2024-02-26T00:28:03;1.20;;;1.10;;
7493;SDS011;3788;49.902;8.590;2024-02-26T00:30:30;1.97;;;1.30;;
7493;SDS011;3788;49.902;8.590;2024-02-26T00:32:57;1.20;;;1.10;;
7493;SDS011;3788;49.902;8.590;2024-02-26T00:35:24;1.37;;;1.20;;
7493;SDS011;3788;49.902;8.590;2024-02-26T00:37:50;1.10;;;1.10;;
7493;SDS011;3788;49.902;8.590;2024-02-26T00:40:18;1.30;;;1.20;;
7493;SDS011;3788;49.902;8.590;2024-02-26T00:42:45;1.20;;;1.10;;
7493;SDS011;3788;49.902;8.590;2024-02-26T00:45:12;1.47;;;1.37;;
7493;SDS011;3788;49.902;8.590;2024-02-26T00:47:41;1.30;;;1.20;;
7493;SDS011;3788;49.902;8.590;2024-02-26T00:50:10;1.40;;;1.23;;
7493;SDS011;3788;49.902;8.590;2024-02-26T00:52:36;1.20;;;1.10;;
7493;SDS011;3788;49.902;8.590;2024-02-26T00:55:03;1.20;;;1.10;;
7493;SDS011;3788;49.902;8.590;2024-02-26T00:57:32;1.17;;;1.07;;
7493;SDS011;3788;49.902;8.590;2024-02-26T00:59:59;1.13;;;1.13;;
7493;SDS011;3788;49.902;8.590;2024-02-26T01:02:25;1.20;;;1.10;;
7493;SDS011;3788;49.902;8.590;2024-02-26T01:04:52;1.37;;;1.10;;
7493;SDS011;3788;49.902;8.590;2024-02-26T01:07:19;2.27;;;1.27;;
7493;SDS011;3788;49.902;8.590;2024-02-26T01:09:45;1.83;;;1.50;;
7493;SDS011;3788;49.902;8.590;2024-02-26T01:12:12;1.97;;;1.67;;
7493;SDS011;3788;49.902;8.590;2024-02-26T01:14:40;1.10;;;1.10;;
7493;SDS011;3788;49.902;8.590;2024-02-26T01:17:07;1.43;;;1.33;;
7493;SDS011;3788;49.902;8.590;2024-02-26T01:19:33;1.37;;;1.27;;
7493;SDS011;3788;49.902;8.590;2024-02-26T01:22:00;1.50;;;1.40;;
7493;SDS011;3788;49.902;8.590;2024-02-26T01:24:27;1.40;;;1.30;;
7493;SDS011;3788;49.902;8.590;2024-02-26T01:26:54;1.10;;;1.10;;
7493;SDS011;3788;49.902;8.590;2024-02-26T01:29:20;2.00;;;1.23;;
7493;SDS011;3788;49.902;8.590;2024-02-26T01:31:48;1.20;;;1.10;;
7493;SDS011;3788;49.902;8.590;2024-02-26T01:34:15;1.20;;;1.10;;
7493;SDS011;3788;49.902;8.590;2024-02-26T01:36:43;1.10;;;1.00;;
7493;SDS011;3788;49.902;8.590;2024-02-26T01:39:09;1.43;;;1.33;;
7493;SDS011;3788;49.902;8.590;2024-02-26T01:41:37;1.10;;;1.00;;
7493;SDS011;3788;49.902;8.590;2024-02-26T01:44:04;1.20;;;1.20;;
7493;SDS011;3788;49.902;8.590;2024-02-26T01:46:31;1.37;;;1.27;;
7493;SDS011;3788;49.902;8.590;2024-02-26T01:49:01;1.37;;;1.27;;
7493;SDS011;3788;49.902;8.590;2024-02-26T01:51:29;1.30;;;1.20;;
7493;SDS011;3788;49.902;8.590;2024-02-26T01:53:57;1.60;;;1.40;;
7493;SDS011;3788;49.902;8.590;2024-02-26T01:56:24;1.50;;;1.40;;
7493;SDS011;3788;49.902;8.590;2024-02-26T01:58:55;2.60;;;1.40;;
7493;SDS011;3788;49.902;8.590;2024-02-26T02:01:22;1.63;;;1.53;;
7493;SDS011;3788;49.902;8.590;2024-02-26T02:03:53;1.50;;;1.40;;
7493;SDS011;3788;49.902;8.590;2024-02-26T02:06:21;1.50;;;1.40;;
7493;SDS011;3788;49.902;8.590;2024-02-26T02:08:48;1.50;;;1.40;;
7493;SDS011;3788;49.902;8.590;2024-02-26T02:11:15;2.27;;;1.70;;
7493;SDS011;3788;49.902;8.590;2024-02-26T02:13:42;1.67;;;1.57;;
7493;SDS011;3788;49.902;8.590;2024-02-26T02:16:09;2.07;;;1.73;;
7493;SDS011;3788;49.902;8.590;2024-02-26T02:18:35;1.70;;;1.60;;
7493;SDS011;3788;49.902;8.590;2024-02-26T02:21:03;2.80;;;1.60;;
7493;SDS011;3788;49.902;8.590;2024-02-26T02:23:30;2.10;;;1.50;;
7493;SDS011;3788;49.902;8.590;2024-02-26T02:25:57;3.03;;;1.70;;
7493;SDS011;3788;49.902;8.590;2024-02-26T02:28:25;1.40;;;1.20;;
7493;SDS011;3788;49.902;8.590;2024-02-26T02:30:52;2.73;;;1.80;;
7493;SDS011;3788;49.902;8.590;2024-02-26T02:33:19;1.83;;;1.43;;
7493;SDS011;3788;49.902;8.590;2024-02-26T02:35:46;3.13;;;1.70;;
7493;SDS011;3788;49.902;8.590;2024-02-26T02:38:14;2.60;;;1.67;;
7493;SDS011;3788;49.902;8.590;2024-02-26T02:40:41;2.03;;;1.47;;
7493;SDS011;3788;49.902;8.590;2024-02-26T02:43:08;2.40;;;1.60;;
7493;SDS011;3788;49.902;8.590;2024-02-26T02:45:34;2.50;;;2.07;;
7493;SDS011;3788;49.902;8.590;2024-02-26T02:48:01;1.50;;;1.40;;
7493;SDS011;3788;49.902;8.590;2024-02-26T02:50:28;1.60;;;1.50;;
7493;SDS011;3788;49.902;8.590;2024-02-26T02:52:54;1.53;;;1.43;;
7493;SDS011;3788;49.902;8.590;2024-02-26T02:55:22;1.90;;;1.67;;
7493;SDS011;3788;49.902;8.590;2024-02-26T02:57:49;1.70;;;1.60;;
7493;SDS011;3788;49.902;8.590;2024-02-26T03:00:16;1.90;;;1.80;;
7493;SDS011;3788;49.902;8.590;2024-02-26T03:02:43;1.50;;;1.40;;
7493;SDS011;3788;49.902;8.590;2024-02-26T03:05:10;1.70;;;1.60;;
7493;SDS011;3788;49.902;8.590;2024-02-26T03:07:37;1.53;;;1.37;;
7493;SDS011;3788;49.902;8.590;2024-02-26T03:10:04;2.03;;;1.77;;
7493;SDS011;3788;49.902;8.590;2024-02-26T03:12:33;2.10;;;1.57;;
7493;SDS011;3788;49.902;8.590;2024-02-26T03:15:00;3.20;;;1.50;;
7493;SDS011;3788;49.902;8.590;2024-02-26T03:17:27;1.83;;;1.50;;
7493;SDS011;3788;49.902;8.590;2024-02-26T03:19:55;1.70;;;1.60;;
7493;SDS011;3788;49.902;8.590;2024-02-26T03:22:21;1.60;;;1.50;;
7493;SDS011;3788;49.902;8.590;2024-02-26T03:24:48;1.70;;;1.60;;
7493;SDS011;3788;49.902;8.590;2024-02-26T03:27:14;1.50;;;1.40;;
7493;SDS011;3788;49.902;8.590;2024-02-26T03:29:42;1.40;;;1.30;;
7493;SDS011;3788;49.902;8.590;2024-02-26T03:32:09;1.73;;;1.57;;
7493;SDS011;3788;49.902;8.590;2024-02-26T03:34:36;1.53;;;1.40;;
7493;SDS011;3788;49.902;8.590;2024-02-26T03:37:04;1.50;;;1.40;;
7493;SDS011;3788;49.902;8.590;2024-02-26T03:39:30;1.30;;;1.20;;
7493;SDS011;3788;49.902;8.590;2024-02-26T03:41:57;1.33;;;1.27;;
7493;SDS011;3788;49.902;8.590;2024-02-26T03:44:24;1.27;;;1.20;;
7493;SDS011;3788;49.902;8.590;2024-02-26T03:46:52;1.20;;;1.10;;
7493;SDS011;3788;49.902;8.590;2024-02-26T03:49:19;1.37;;;1.27;;
7493;SDS011;3788;49.902;8.590;2024-02-26T03:51:45;1.47;;;1.37;;
7493;SDS011;3788;49.902;8.590;2024-02-26T03:54:12;1.17;;;1.17;;
7493;SDS011;3788;49.902;8.590;2024-02-26T03:56:39;1.07;;;1.07;;
7493;SDS011;3788;49.902;8.590;2024-02-26T03:59:05;1.20;;;1.20;;
7493;SDS011;3788;49.902;8.590;2024-02-26T04:01:32;1.27;;;1.20;;
7493;SDS011;3788;49.902;8.590;2024-02-26T04:04:00;1.30;;;1.20;;
7493;SDS011;3788;49.902;8.590;2024-02-26T04:06:27;1.40;;;1.30;;
7493;SDS011;3788;49.902;8.590;2024-02-26T04:08:53;1.20;;;1.10;;
7493;SDS011;3788;49.902;8.590;2024-02-26T04:11:20;1.40;;;1.30;;
7493;SDS011;3788;49.902;8.590;2024-02-26T04:13:47;1.20;;;1.20;;
7493;SDS011;3788;49.902;8.590;2024-02-26T04:16:16;1.30;;;1.20;;
7493;SDS011;3788;49.902;8.590;2024-02-26T04:18:43;1.20;;;1.10;;
7493;SDS011;3788;49.902;8.590;2024-02-26T04:21:11;1.50;;;1.40;;
7493;SDS011;3788;49.902;8.590;2024-02-26T04:23:38;1.83;;;1.23;;
7493;SDS011;3788;49.902;8.590;2024-02-26T04:26:04;1.23;;;1.13;;
7493;SDS011;3788;49.902;8.590;2024-02-26T04:28:31;1.33;;;1.23;;
7493;SDS011;3788;49.902;8.590;2024-02-26T04:30:57;1.50;;;1.40;;
7493;SDS011;3788;49.902;8.590;2024-02-26T04:33:24;1.40;;;1.30;;
7493;SDS011;3788;49.902;8.590;2024-02-26T04:35:51;1.60;;;1.50;;
7493;SDS011;3788;49.902;8.590;2024-02-26T04:38:19;1.73;;;1.40;;
7493;SDS011;3788;49.902;8.590;2024-02-26T04:40:45;1.60;;;1.50;;
7493;SDS011;3788;49.902;8.590;2024-02-26T04:43:12;1.50;;;1.40;;
7493;SDS011;3788;49.902;8.590;2024-02-26T04:45:39;1.77;;;1.53;;
7493;SDS011;3788;49.902;8.590;2024-02-26T04:48:06;1.80;;;1.70;;
7493;SDS011;3788;49.902;8.590;2024-02-26T04:50:33;3.47;;;1.90;;
7493;SDS011;3788;49.902;8.590;2024-02-26T04:53:00;2.30;;;2.10;;
7493;SDS011;3788;49.902;8.590;2024-02-26T04:55:27;2.23;;;2.03;;
7493;SDS011;3788;49.902;8.590;2024-02-26T04:57:54;3.87;;;2.37;;
7493;SDS011;3788;49.902;8.590;2024-02-26T05:00:21;3.27;;;2.20;;
7493;SDS011;3788;49.902;8.590;2024-02-26T05:02:46;2.33;;;2.13;;
7493;SDS011;3788;49.902;8.590;2024-02-26T05:05:13;3.30;;;2.00;;
7493;SDS011;3788;49.902;8.590;2024-02-26T05:07:40;3.47;;;2.10;;
7493;SDS011;3788;49.902;8.590;2024-02-26T05:10:07;2.37;;;1.90;;
7493;SDS011;3788;49.902;8.590;2024-02-26T05:12:35;2.63;;;1.80;;
7493;SDS011;3788;49.902;8.590;2024-02-26T05:15:02;2.40;;;2.17;;
7493;SDS011;3788;49.902;8.590;2024-02-26T05:17:29;2.73;;;2.00;;
7493;SDS011;3788;49.902;8.590;2024-02-26T05:19:56;2.37;;;2.03;;
7493;SDS011;3788;49.902;8.590;2024-02-26T05:22:22;3.50;;;2.13;;
7493;SDS011;3788;49.902;8.590;2024-02-26T05:24:49;2.23;;;2.00;;
7493;SDS011;3788;49.902;8.590;2024-02-26T05:27:16;2.30;;;2.10;;
7493;SDS011;3788;49.902;8.590;2024-02-26T05:29:44;2.13;;;1.90;;
7493;SDS011;3788;49.902;8.590;2024-02-26T05:32:11;2.97;;;2.13;;
7493;SDS011;3788;49.902;8.590;2024-02-26T05:34:37;2.40;;;2.20;;
7493;SDS011;3788;49.902;8.590;2024-02-26T05:37:06;2.50;;;1.80;;
7493;SDS011;3788;49.902;8.590;2024-02-26T05:39:33;2.50;;;2.30;;
7493;SDS011;3788;49.902;8.590;2024-02-26T05:42:00;3.17;;;2.40;;
7493;SDS011;3788;49.902;8.590;2024-02-26T05:44:26;2.77;;;2.57;;
7493;SDS011;3788;49.902;8.590;2024-02-26T05:46:54;3.87;;;2.90;;
7493;SDS011;3788;49.902;8.590;2024-02-26T05:49:21;2.87;;;2.57;;
7493;SDS011;3788;49.902;8.590;2024-02-26T05:51:48;2.87;;;2.33;;
7493;SDS011;3788;49.902;8.590;2024-02-26T05:54:15;3.40;;;2.67;;
7493;SDS011;3788;49.902;8.590;2024-02-26T05:56:41;3.77;;;2.80;;
7493;SDS011;3788;49.902;8.590;2024-02-26T05:59:08;2.93;;;2.63;;
7493;SDS011;3788;49.902;8.590;2024-02-26T06:01:35;3.50;;;2.70;;
7493;SDS011;3788;49.902;8.590;2024-02-26T06:04:03;5.47;;;3.30;;
7493;SDS011;3788;49.902;8.590;2024-02-26T06:06:30;3.37;;;3.07;;
7493;SDS011;3788;49.902;8.590;2024-02-26T06:08:57;3.67;;;3.00;;
7493;SDS011;3788;49.902;8.590;2024-02-26T06:11:23;3.63;;;3.30;;
7493;SDS011;3788;49.902;8.590;2024-02-26T06:13:50;3.60;;;3.30;;
7493;SDS011;3788;49.902;8.590;2024-02-26T06:16:16;3.73;;;3.30;;
7493;SDS011;3788;49.902;8.590;2024-02-26T06:18:43;3.70;;;3.20;;
7493;SDS011;3788;49.902;8.590;2024-02-26T06:21:11;4.37;;;3.40;;
7493;SDS011;3788;49.902;8.590;2024-02-26T06:23:38;3.50;;;3.20;;
7493;SDS011;3788;49.902;8.590;2024-02-26T06:26:05;4.38;;;3.97;;
7493;SDS011;3788;49.902;8.590;2024-02-26T06:28:31;4.00;;;3.60;;
7493;SDS011;3788;49.902;8.590;2024-02-26T06:31:00;5.20;;;3.77;;
7493;SDS011;3788;49.902;8.590;2024-02-26T06:33:27;4.33;;;3.40;;
7493;SDS011;3788;49.902;8.590;2024-02-26T06:35:54;4.13;;;3.70;;
7493;SDS011;3788;49.902;8.590;2024-02-26T06:38:23;3.37;;;3.07;;
7493;SDS011;3788;49.902;8.590;2024-02-26T06:40:49;4.03;;;3.37;;
7493;SDS011;3788;49.902;8.590;2024-02-26T06:43:16;5.43;;;3.43;;
7493;SDS011;3788;49.902;8.590;2024-02-26T06:45:43;4.00;;;3.60;;
7493;SDS011;3788;49.902;8.590;2024-02-26T06:48:10;4.17;;;3.40;;
7493;SDS011;3788;49.902;8.590;2024-02-26T06:50:36;3.90;;;3.50;;
7493;SDS011;3788;49.902;8.590;2024-02-26T06:53:03;4.10;;;3.23;;
7493;SDS011;3788;49.902;8.590;2024-02-26T06:55:33;4.37;;;3.90;;
7493;SDS011;3788;49.902;8.590;2024-02-26T06:58:00;5.17;;;3.40;;
7493;SDS011;3788;49.902;8.590;2024-02-26T07:00:26;5.87;;;4.40;;
7493;SDS011;3788;49.902;8.590;2024-02-26T07:02:53;4.77;;;4.10;;
7493;SDS011;3788;49.902;8.590;2024-02-26T07:05:20;4.67;;;4.00;;
7493;SDS011;3788;49.902;8.590;2024-02-26T07:07:46;4.47;;;4.03;;
7493;SDS011;3788;49.902;8.590;2024-02-26T07:10:13;6.00;;;4.60;;
7493;SDS011;3788;49.902;8.590;2024-02-26T07:12:41;6.60;;;4.10;;
7493;SDS011;3788;49.902;8.590;2024-02-26T07:15:09;5.10;;;4.17;;
7493;SDS011;3788;49.902;8.590;2024-02-26T07:17:36;6.07;;;3.80;;
7493;SDS011;3788;49.902;8.590;2024-02-26T07:20:07;4.40;;;4.00;;
7493;SDS011;3788;49.902;8.590;2024-02-26T07:22:34;5.23;;;4.17;;
7493;SDS011;3788;49.902;8.590;2024-02-26T07:25:01;5.67;;;3.97;;
7493;SDS011;3788;49.902;8.590;2024-02-26T07:27:28;5.47;;;4.10;;
7493;SDS011;3788;49.902;8.590;2024-02-26T07:29:57;5.90;;;4.07;;
7493;SDS011;3788;49.902;8.590;2024-02-26T07:32:23;5.27;;;4.27;;
7493;SDS011;3788;49.902;8.590;2024-02-26T07:34:50;6.20;;;4.27;;
7493;SDS011;3788;49.902;8.590;2024-02-26T07:37:16;6.07;;;4.23;;
7493;SDS011;3788;49.902;8.590;2024-02-26T07:39:43;5.17;;;4.40;;
7493;SDS011;3788;49.902;8.590;2024-02-26T07:42:10;5.77;;;4.20;;
7493;SDS011;3788;49.902;8.590;2024-02-26T07:44:36;5.90;;;4.30;;
7493;SDS011;3788;49.902;8.590;2024-02-26T07:47:05;5.47;;;3.73;;
7493;SDS011;3788;49.902;8.590;2024-02-26T07:49:30;5.13;;;4.57;;
7493;SDS011;3788;49.902;8.590;2024-02-26T07:51:57;6.33;;;4.30;;
7493;SDS011;3788;49.902;8.590;2024-02-26T07:54:24;5.40;;;4.23;;
7493;SDS011;3788;49.902;8.590;2024-02-26T07:56:50;5.97;;;4.33;;
7493;SDS011;3788;49.902;8.590;2024-02-26T07:59:17;5.17;;;4.00;;
7493;SDS011;3788;49.902;8.590;2024-02-26T08:01:44;5.03;;;4.17;;
7493;SDS011;3788;49.902;8.590;2024-02-26T08:04:16;5.50;;;4.03;;
7493;SDS011;3788;49.902;8.590;2024-02-26T08:06:43;4.83;;;4.27;;
7493;SDS011;3788;49.902;8.590;2024-02-26T08:09:09;4.73;;;4.20;;
7493;SDS011;3788;49.902;8.590;2024-02-26T08:11:37;5.50;;;4.17;;
7493;SDS011;3788;49.902;8.590;2024-02-26T08:14:04;4.93;;;4.07;;
7493;SDS011;3788;49.902;8.590;2024-02-26T08:16:31;4.80;;;4.30;;
7493;SDS011;3788;49.902;8.590;2024-02-26T08:18:57;4.67;;;4.17;;
7493;SDS011;3788;49.902;8.590;2024-02-26T08:21:25;4.30;;;3.70;;
7493;SDS011;3788;49.902;8.590;2024-02-26T08:23:52;5.47;;;4.37;;
7493;SDS011;3788;49.902;8.590;2024-02-26T08:26:19;6.07;;;4.70;;
7493;SDS011;3788;49.902;8.590;2024-02-26T08:28:47;6.17;;;4.70;;
7493;SDS011;3788;49.902;8.590;2024-02-26T08:31:16;6.13;;;4.80;;
7493;SDS011;3788;49.902;8.590;2024-02-26T08:33:43;5.67;;;4.03;;
7493;SDS011;3788;49.902;8.590;2024-02-26T08:36:11;6.87;;;5.23;;
7493;SDS011;3788;49.902;8.590;2024-02-26T08:38:39;5.93;;;4.43;;
7493;SDS011;3788;49.902;8.590;2024-02-26T08:41:05;5.47;;;4.47;;
7493;SDS011;3788;49.902;8.590;2024-02-26T08:43:32;5.73;;;4.70;;
7493;SDS011;3788;49.902;8.590;2024-02-26T08:45:59;6.13;;;5.13;;
7493;SDS011;3788;49.902;8.590;2024-02-26T08:48:25;7.10;;;4.57;;
7493;SDS011;3788;49.902;8.590;2024-02-26T08:50:52;6.90;;;4.87;;
7493;SDS011;3788;49.902;8.590;2024-02-26T08:53:18;6.13;;;4.60;;
7493;SDS011;3788;49.902;8.590;2024-02-26T08:55:46;5.63;;;4.77;;
7493;SDS011;3788;49.902;8.590;2024-02-26T08:58:13;5.07;;;4.57;;
7493;SDS011;3788;49.902;8.590;2024-02-26T09:00:40;6.20;;;4.50;;
7493;SDS011;3788;49.902;8.590;2024-02-26T09:03:06;6.70;;;4.90;;
7493;SDS011;3788;49.902;8.590;2024-02-26T09:05:33;5.40;;;4.67;;
7493;SDS011;3788;49.902;8.590;2024-02-26T09:08:00;7.37;;;5.07;;
7493;SDS011;3788;49.902;8.590;2024-02-26T09:10:26;5.80;;;4.53;;
7493;SDS011;3788;49.902;8.590;2024-02-26T09:12:54;6.57;;;4.53;;
7493;SDS011;3788;49.902;8.590;2024-02-26T09:15:21;5.70;;;4.80;;
7493;SDS011;3788;49.902;8.590;2024-02-26T09:17:48;7.17;;;5.07;;
7493;SDS011;3788;49.902;8.590;2024-02-26T09:20:15;5.40;;;4.33;;
7493;SDS011;3788;49.902;8.590;2024-02-26T09:22:45;4.80;;;4.20;;
7493;SDS011;3788;49.902;8.590;2024-02-26T09:25:11;5.73;;;4.53;;
7493;SDS011;3788;49.902;8.590;2024-02-26T09:27:38;6.23;;;4.57;;
7493;SDS011;3788;49.902;8.590;2024-02-26T09:30:06;6.97;;;4.40;;
7493;SDS011;3788;49.902;8.590;2024-02-26T09:32:34;7.10;;;4.60;;
7493;SDS011;3788;49.902;8.590;2024-02-26T09:35:01;6.60;;;4.20;;
7493;SDS011;3788;49.902;8.590;2024-02-26T09:37:28;6.53;;;4.37;;
7493;SDS011;3788;49.902;8.590;2024-02-26T09:39:55;6.10;;;4.60;;
7493;SDS011;3788;49.902;8.590;2024-02-26T09:42:21;5.87;;;4.40;;
7493;SDS011;3788;49.902;8.590;2024-02-26T09:44:53;5.10;;;4.33;;
7493;SDS011;3788;49.902;8.590;2024-02-26T09:47:22;5.00;;;3.87;;
7493;SDS011;3788;49.902;8.590;2024-02-26T09:49:52;6.27;;;3.83;;
7493;SDS011;3788;49.902;8.590;2024-02-26T09:52:20;5.00;;;3.93;;
7493;SDS011;3788;49.902;8.590;2024-02-26T09:54:47;5.57;;;4.47;;
7493;SDS011;3788;49.902;8.590;2024-02-26T09:57:15;7.13;;;4.30;;
7493;SDS011;3788;49.902;8.590;2024-02-26T09:59:42;4.57;;;4.10;;
7493;SDS011;3788;49.902;8.590;2024-02-26T10:02:11;4.60;;;3.87;;
7493;SDS011;3788;49.902;8.590;2024-02-26T10:04:40;6.97;;;4.50;;
7493;SDS011;3788;49.902;8.590;2024-02-26T10:07:09;5.93;;;4.53;;
7493;SDS011;3788;49.902;8.590;2024-02-26T10:09:37;5.83;;;3.80;;
7493;SDS011;3788;49.902;8.590;2024-02-26T10:12:05;5.03;;;4.17;;
7493;SDS011;3788;49.902;8.590;2024-02-26T10:14:35;5.07;;;4.37;;
7493;SDS011;3788;49.902;8.590;2024-02-26T10:17:02;4.20;;;3.77;;
7493;SDS011;3788;49.902;8.590;2024-02-26T10:19:30;4.40;;;3.70;;
7493;SDS011;3788;49.902;8.590;2024-02-26T10:22:00;3.73;;;3.30;;
7493;SDS011;3788;49.902;8.590;2024-02-26T10:24:28;4.60;;;3.17;;
7493;SDS011;3788;49.902;8.590;2024-02-26T10:26:56;3.97;;;3.63;;
7493;SDS011;3788;49.902;8.590;2024-02-26T10:29:23;5.53;;;3.73;;
7493;SDS011;3788;49.902;8.590;2024-02-26T10:31:51;5.93;;;4.07;;
7493;SDS011;3788;49.902;8.590;2024-02-26T10:34:18;4.83;;;3.37;;
7493;SDS011;3788;49.902;8.590;2024-02-26T10:36:45;4.00;;;3.30;;
7493;SDS011;3788;49.902;8.590;2024-02-26T10:39:13;4.70;;;3.70;;
7493;SDS011;3788;49.902;8.590;2024-02-26T10:41:42;3.40;;;3.10;;
7493;SDS011;3788;49.902;8.590;2024-02-26T10:44:10;3.67;;;3.37;;
7493;SDS011;3788;49.902;8.590;2024-02-26T10:46:37;4.60;;;3.30;;
7493;SDS011;3788;49.902;8.590;2024-02-26T10:49:04;4.03;;;3.00;;
7493;SDS011;3788;49.902;8.590;2024-02-26T10:51:33;4.47;;;3.67;;
7493;SDS011;3788;49.902;8.590;2024-02-26T10:54:03;4.13;;;3.40;;
7493;SDS011;3788;49.902;8.590;2024-02-26T10:56:34;3.23;;;2.93;;
7493;SDS011;3788;49.902;8.590;2024-02-26T10:59:02;4.90;;;3.53;;
7493;SDS011;3788;49.902;8.590;2024-02-26T11:01:31;5.67;;;3.50;;
7493;SDS011;3788;49.902;8.590;2024-02-26T11:03:58;4.77;;;3.43;;
7493;SDS011;3788;49.902;8.590;2024-02-26T11:06:26;3.77;;;2.70;;
7493;SDS011;3788;49.902;8.590;2024-02-26T11:08:54;5.87;;;4.03;;
7493;SDS011;3788;49.902;8.590;2024-02-26T11:11:21;4.60;;;3.73;;
7493;SDS011;3788;49.902;8.590;2024-02-26T11:13:50;3.97;;;3.27;;
7493;SDS011;3788;49.902;8.590;2024-02-26T11:16:20;3.37;;;3.07;;
7493;SDS011;3788;49.902;8.590;2024-02-26T11:18:48;3.83;;;3.53;;
7493;SDS011;3788;49.902;8.590;2024-02-26T11:21:15;4.47;;;3.73;;
7493;SDS011;3788;49.902;8.590;2024-02-26T11:23:43;3.60;;;3.30;;
7493;SDS011;3788;49.902;8.590;2024-02-26T11:26:10;4.37;;;3.70;;
7493;SDS011;3788;49.902;8.590;2024-02-26T11:28:39;5.43;;;3.70;;
7493;SDS011;3788;49.902;8.590;2024-02-26T11:31:08;3.87;;;3.47;;
7493;SDS011;3788;49.902;8.590;2024-02-26T11:33:35;4.20;;;3.60;;
7493;SDS011;3788;49.902;8.590;2024-02-26T11:36:02;4.57;;;3.70;;
7493;SDS011;3788;49.902;8.590;2024-02-26T11:38:33;6.83;;;3.90;;
7493;SDS011;3788;49.902;8.590;2024-02-26T11:41:00;5.10;;;4.00;;
7493;SDS011;3788;49.902;8.590;2024-02-26T11:46:26;6.43;;;4.03;;
7493;SDS011;3788;49.902;8.590;2024-02-26T11:48:56;4.30;;;3.73;;
7493;SDS011;3788;49.902;8.590;2024-02-26T11:51:27;5.80;;;3.80;;
7493;SDS011;3788;49.902;8.590;2024-02-26T11:53:58;4.63;;;3.53;;
7493;SDS011;3788;49.902;8.590;2024-02-26T11:56:24;4.57;;;4.00;;
7493;SDS011;3788;49.902;8.590;2024-02-26T11:58:56;4.07;;;3.67;;
7493;SDS011;3788;49.902;8.590;2024-02-26T12:01:41;4.77;;;3.43;;
7493;SDS011;3788;49.902;8.590;2024-02-26T12:04:11;4.60;;;3.57;;
7493;SDS011;3788;49.902;8.590;2024-02-26T12:06:41;4.13;;;3.73;;
7493;SDS011;3788;49.902;8.590;2024-02-26T12:09:08;5.47;;;4.00;;
7493;SDS011;3788;49.902;8.590;2024-02-26T12:11:37;3.90;;;3.50;;
7493;SDS011;3788;49.902;8.590;2024-02-26T12:14:05;4.00;;;3.43;;
7493;SDS011;3788;49.902;8.590;2024-02-26T12:16:36;3.93;;;3.47;;
7493;SDS011;3788;49.902;8.590;2024-02-26T12:19:06;3.87;;;3.40;;
7493;SDS011;3788;49.902;8.590;2024-02-26T12:21:34;4.30;;;3.67;;
7493;SDS011;3788;49.902;8.590;2024-02-26T12:24:11;3.97;;;3.40;;
7493;SDS011;3788;49.902;8.590;2024-02-26T12:26:40;4.47;;;3.87;;
7493;SDS011;3788;49.902;8.590;2024-02-26T12:29:07;4.80;;;3.80;;
7493;SDS011;3788;49.902;8.590;2024-02-26T12:31:34;4.73;;;4.23;;
7493;SDS011;3788;49.902;8.590;2024-02-26T12:34:03;5.13;;;3.87;;
7493;SDS011;3788;49.902;8.590;2024-02-26T12:36:34;3.93;;;3.37;;
7493;SDS011;3788;49.902;8.590;2024-02-26T12:39:01;3.63;;;3.20;;
7493;SDS011;3788;49.902;8.590;2024-02-26T12:41:30;4.20;;;3.73;;
7493;SDS011;3788;49.902;8.590;2024-02-26T12:43:57;4.67;;;4.20;;
7493;SDS011;3788;49.902;8.590;2024-02-26T12:46:25;3.50;;;3.10;;
7493;SDS011;3788;49.902;8.590;2024-02-26T12:48:51;3.40;;;3.10;;
7493;SDS011;3788;49.902;8.590;2024-02-26T12:51:23;3.80;;;3.23;;
7493;SDS011;3788;49.902;8.590;2024-02-26T12:53:51;4.10;;;3.30;;
7493;SDS011;3788;49.902;8.590;2024-02-26T12:56:18;4.60;;;3.93;;
7493;SDS011;3788;49.902;8.590;2024-02-26T12:58:45;4.53;;;3.60;;
7493;SDS011;3788;49.902;8.590;2024-02-26T13:01:14;5.77;;;3.87;;
7493;SDS011;3788;49.902;8.590;2024-02-26T13:03:42;4.90;;;3.60;;
7493;SDS011;3788;49.902;8.590;2024-02-26T13:06:09;5.93;;;3.10;;
7493;SDS011;3788;49.902;8.590;2024-02-26T13:08:37;4.23;;;3.73;;
7493;SDS011;3788;49.902;8.590;2024-02-26T13:11:05;4.47;;;3.43;;
7493;SDS011;3788;49.902;8.590;2024-02-26T13:13:32;4.50;;;3.90;;
7493;SDS011;3788;49.902;8.590;2024-02-26T13:16:02;5.00;;;3.60;;
7493;SDS011;3788;49.902;8.590;2024-02-26T13:18:31;4.57;;;3.57;;
7493;SDS011;3788;49.902;8.590;2024-02-26T13:21:08;3.90;;;3.47;;
7493;SDS011;3788;49.902;8.590;2024-02-26T13:23:35;3.87;;;3.30;;
7493;SDS011;3788;49.902;8.590;2024-02-26T13:26:03;4.77;;;3.60;;
7493;SDS011;3788;49.902;8.590;2024-02-26T13:28:30;4.50;;;3.10;;
7493;SDS011;3788;49.902;8.590;2024-02-26T13:30:57;3.90;;;3.50;;
7493;SDS011;3788;49.902;8.590;2024-02-26T13:33:26;4.67;;;3.60;;
7493;SDS011;3788;49.902;8.590;2024-02-26T13:35:54;4.00;;;3.57;;
7493;SDS011;3788;49.902;8.590;2024-02-26T13:38:21;5.57;;;3.70;;
7493;SDS011;3788;49.902;8.590;2024-02-26T13:40:50;4.67;;;3.20;;
7493;SDS011;3788;49.902;8.590;2024-02-26T13:43:17;3.50;;;3.20;;
7493;SDS011;3788;49.902;8.590;2024-02-26T13:45:44;4.13;;;3.47;;
7493;SDS011;3788;49.902;8.590;2024-02-26T13:48:11;5.80;;;2.93;;
7493;SDS011;3788;49.902;8.590;2024-02-26T13:50:38;3.77;;;3.47;;
7493;SDS011;3788;49.902;8.590;2024-02-26T13:53:05;3.40;;;3.10;;
7493;SDS011;3788;49.902;8.590;2024-02-26T13:55:32;3.87;;;3.47;;
7493;SDS011;3788;49.902;8.590;2024-02-26T13:58:00;4.20;;;3.10;;
7493;SDS011;3788;49.902;8.590;2024-02-26T14:00:27;4.33;;;3.27;;
7493;SDS011;3788;49.902;8.590;2024-02-26T14:02:55;4.23;;;3.53;;
7493;SDS011;3788;49.902;8.590;2024-02-26T14:05:21;3.97;;;3.53;;
7493;SDS011;3788;49.902;8.590;2024-02-26T14:07:48;4.23;;;3.50;;
7493;SDS011;3788;49.902;8.590;2024-02-26T14:10:14;3.90;;;3.53;;
7493;SDS011;3788;49.902;8.590;2024-02-26T14:12:41;3.20;;;2.90;;
7493;SDS011;3788;49.902;8.590;2024-02-26T14:15:10;3.57;;;3.27;;
7493;SDS011;3788;49.902;8.590;2024-02-26T14:17:37;3.07;;;2.77;;
7493;SDS011;3788;49.902;8.590;2024-02-26T14:20:04;5.20;;;3.33;;
7493;SDS011;3788;49.902;8.590;2024-02-26T14:22:32;3.23;;;2.93;;
7493;SDS011;3788;49.902;8.590;2024-02-26T14:24:59;3.47;;;3.00;;
7493;SDS011;3788;49.902;8.590;2024-02-26T14:27:26;3.70;;;2.97;;
7493;SDS011;3788;49.902;8.590;2024-02-26T14:29:53;4.10;;;3.57;;
7493;SDS011;3788;49.902;8.590;2024-02-26T14:32:21;5.90;;;4.73;;
7493;SDS011;3788;49.902;8.590;2024-02-26T14:34:48;6.50;;;4.93;;
7493;SDS011;3788;49.902;8.590;2024-02-26T14:37:15;6.07;;;4.50;;
7493;SDS011;3788;49.902;8.590;2024-02-26T14:39:42;6.17;;;4.17;;
7493;SDS011;3788;49.902;8.590;2024-02-26T14:42:08;4.33;;;3.13;;
7493;SDS011;3788;49.902;8.590;2024-02-26T14:44:35;3.93;;;3.53;;
7493;SDS011;3788;49.902;8.590;2024-02-26T14:47:01;4.37;;;3.60;;
7493;SDS011;3788;49.902;8.590;2024-02-26T14:49:30;5.70;;;3.63;;
7493;SDS011;3788;49.902;8.590;2024-02-26T14:51:57;8.00;;;3.70;;
7493;SDS011;3788;49.902;8.590;2024-02-26T14:54:23;3.63;;;2.90;;
7493;SDS011;3788;49.902;8.590;2024-02-26T14:56:50;3.07;;;2.60;;
7493;SDS011;3788;49.902;8.590;2024-02-26T14:59:17;3.93;;;3.53;;
7493;SDS011;3788;49.902;8.590;2024-02-26T15:01:43;3.87;;;3.43;;
7493;SDS011;3788;49.902;8.590;2024-02-26T15:04:10;3.37;;;2.90;;
7493;SDS011;3788;49.902;8.590;2024-02-26T15:06:38;3.67;;;3.20;;
7493;SDS011;3788;49.902;8.590;2024-02-26T15:09:06;5.40;;;3.50;;
7493;SDS011;3788;49.902;8.590;2024-02-26T15:11:32;5.93;;;3.40;;
7493;SDS011;3788;49.902;8.590;2024-02-26T15:13:59;3.13;;;2.67;;
7493;SDS011;3788;49.902;8.590;2024-02-26T15:16:26;5.00;;;4.03;;
7493;SDS011;3788;49.902;8.590;2024-02-26T15:18:53;4.90;;;3.27;;